Terminal Aerodrome Forecast
Issued by NWS Portland, ME

Current Version | Previous Version | Text Only | Print | Product List | Glossary On
Versions: 1 2 3 4 5 6 7 8 9 10 11 12 13 14 15 16 17 18 19
314
FTUS41 KGYX 181143 AAA
TAFCON
TAF AMD
KCON 181143Z 1812/1912 02006KT 3SM -SN BR BKN013 OVC024
      TEMPO 1812/1814 5SM -SN OVC009
     FM181400 04005KT 5SM -SHSN BR OVC012
     FM182300 04003KT 4SM BR OVC015 PROB30 1823/1905 2SM -SHSN BR
      OVC012=

USA.gov is the U.S. government's official web portal to all federal, state and local government web resources and services.